KCMX/CMX METAR and TAF weather

Enter ICAO airport designator
Station Type Date Time Source
KCMX METAR 2019/12/13 01:22 UTC NOAA

KCMX 130122Z AUTO 06011KT 9SM BKN014 OVC022 M05/M09 A3001 RMK AO2 SNE18 P0000 T10501089


Station Type Date Time Source
KCMX Decoded METAR 2019/12/13 01:22 UTC NOAA

HANCOCK HOUGHTON CTY. MEMO, MI, United States (KCMX) 47-10N 088-29W 326M
Dec 12, 2019 - 08:22 PM EST / 2019.12.13 0122 UTC
Wind: from the ENE (060 degrees) at 13 MPH (11 KT):0
Visibility: 9 mile(s):0
Sky conditions: overcast
Precipitation last hour: A trace
Temperature: 23.0 F (-5.0 C)
Windchill: 10 F (-12 C):1
Dew Point: 16.0 F (-8.9 C)
Relative Humidity: 74%
Pressure (altimeter): 30.01 in. Hg (1016 hPa)
ob: KCMX 130122Z AUTO 06011KT 9SM BKN014 OVC022 M05/M09 A3001 RMK AO2 SNE18 P0000 T10501089
cycle: 1

Station Type Date Time Source
KCMX TAF 2019/12/12 18:36 UTC NOAA

TAF KCMX 121735Z 1218/1318 09006KT 3/4SM -SN OVC015
TEMPO 1218/1221 2SM -SN BKN025
FM122300 07007KT 3SM -SHSN BR BKN017
FM130200 06007KT 5SM -SHSN BR BKN020
FM130700 05005KT 4SM BR BKN020

Example: see airport list